This is the latest recevied weather packets stored in our database for station/object W7OWO-1. If no packets are shown the sender has not sent any weather packets the latest 10 day(s).
| Time | Temp. | Humidity | Pressure | Rain* | Wind** | Luminosity | Snow |
|---|---|---|---|---|---|---|---|
| 1777619883 | 16.11° C | 69% | 1014.5 hPa | 0 mm | - | - | - |
| 1777616823 | 17.78° C | 61% | 1014.5 hPa | 0 mm | - | - | - |
| 1777614303 | 17.78° C | 66% | 1014.6 hPa | 0 mm | - | - | - |
| 1777604043 | 21.11° C | 58% | 1013.3 hPa | 0 mm | - | - | - |
| 1777600803 | 25.56° C | 46% | 1013.4 hPa | 0 mm | - | - | - |
| 1777597743 | 27.78° C | 38% | 1013.7 hPa | 0 mm | - | - | - |
| 1777594143 | 28.89° C | 36% | 1014 hPa | 0 mm | - | - | - |
| 1777592163 | 28.33° C | 36% | 1014.4 hPa | 0 mm | - | - | - |
| 1777591623 | 28.33° C | 38% | 1014.5 hPa | 0 mm | - | - | - |
| 1777591083 | 28.33° C | 38% | 1014.6 hPa | 0 mm | - | - | - |
| 1777589643 | 27.78° C | 39% | 1015 hPa | 0 mm | - | - | - |
| 1777586943 | 26.67° C | 39% | 1015.4 hPa | 0 mm | - | - | - |
| 1777586403 | 26.67° C | 42% | 1015.6 hPa | 0 mm | - | - | - |
| 1777584423 | 25.56° C | 47% | 1015.9 hPa | 0 mm | - | - | - |
| 1777583343 | 25.56° C | 43% | 1016.1 hPa | 0 mm | - | - | - |
| 1777580823 | 23.89° C | 53% | 1016.5 hPa | 0 mm | - | - | - |
| 1777578843 | 23.33° C | 52% | 1016.9 hPa | 0 mm | - | - | - |
| 1777578303 | 22.78° C | 51% | 1017.1 hPa | 0 mm | - | - | - |
| 1777576683 | 22.22° C | 52% | 1017.5 hPa | 0 mm | - | - | - |
| 1777576143 | 22.22° C | 58% | 1017.5 hPa | 0 mm | - | - | - |
| 1777575243 | 21.67° C | 57% | 1017.7 hPa | 0 mm | - | - | - |
| 1777572543 | 20° C | 60% | 1018 hPa | 0 mm | - | - | - |
| 1777572003 | 20° C | 62% | 1018 hPa | 0 mm | - | - | - |
| 1777570563 | 18.33° C | 65% | 1018.1 hPa | 0 mm | - | - | - |
| 1777566423 | 15.56° C | 82% | 1018.7 hPa | 0 mm | - | - | - |
* Rain latest hour (hover to see other rain measurements)
** Current wind speed in m/s (hover to see current wind gust speed)